Dai15hakuryomaru — JD2439 — position and weather

sailwx.info

Track history (hours):
 
Tides and Currents Weather Stations Pressure Air Temp Water Temp Dewpoint Dewpoint Depression Visibility Wind Speed Wind Dir Waves Ship Positions

Dai15hakuryomaru

Last reported at 2014-Aug-22 01:33 UTC. Time now 2014-Aug-22 01:59 UTC.
Position N 35°30' E 140°02'.

Length 80 m; draft 5.4 m.

Type: Tanker. MMSI: 431000243.

Date/timePositionNaut miles runAvg speedWind from/ knotsBaromVisibWave heightAir tempDewpointWater temp
2014-Aug-22 01:33N 35°30' E 140°02'1 1.0
2014-Aug-22 00:33N 35°30' E 140°01'0 0.0
2014-Aug-21 23:33N 35°30' E 140°01'0 0.0
2014-Aug-21 22:34N 35°30' E 140°01'0 0.0
2014-Aug-21 21:33N 35°30' E 140°01'1 0.7
2014-Aug-21 20:33N 35°30' E 139°60'1212.4
2014-Aug-21 19:33N 35°24' E 139°46'1111.2
2014-Aug-21 18:33N 35°13' E 139°47'1413.6
2014-Aug-21 17:33N 34°60' E 139°44'1310.2
2014-Aug-21 16:17N 34°53' E 139°57'912.2
2014-Aug-21 15:33N 34°58' E 140°06'4013.3
2014-Aug-21 12:32N 35°28' E 140°39'2613.1
2014-Aug-21 10:33N 35°50' E 140°56'11 0.5
2014-Aug-20 10:09N 36°01' E 140°56'1012.1
2014-Aug-20 09:18N 35°51' E 140°56'1012.3
2014-Aug-20 08:27N 35°40' E 140°55'1112.6
2014-Aug-20 07:33N 35°31' E 140°47'1512.9
2014-Aug-20 06:25N 35°20' E 140°36'2612.8
2014-Aug-20 04:26N 35°01' E 140°14'1213.9
2014-Aug-20 03:33N 34°55' E 140°01'1413.6
2014-Aug-20 02:29N 34°52' E 139°44'1413.4
2014-Aug-20 01:26N 34°51' E 139°27'11 0.3
2014-Aug-18 08:25N 34°54' E 139°14'1112.1
2014-Aug-18 07:32N 35°00' E 139°25'1212.4
2014-Aug-18 06:33N 35°05' E 139°38'1212.1
2014-Aug-18 05:33N 35°15' E 139°46'1111.1
2014-Aug-18 04:33N 35°26' E 139°45'2 1.6
2014-Aug-18 03:33N 35°28' E 139°47'7 6.7
2014-Aug-18 02:33N 35°22' E 139°52'0 0.0
2014-Aug-18 01:33N 35°22' E 139°52'0 0.0
2014-Aug-18 00:33N 35°22' E 139°52'2 0.4
2014-Aug-17 18:33N 35°24' E 139°50'3 2.7
2014-Aug-17 17:34N 35°25' E 139°47'1010.3
2014-Aug-17 16:33N 35°14' E 139°47'1312.6
2014-Aug-17 15:33N 35°02' E 139°44'18 8.4
2014-Aug-17 13:21N 35°00' E 140°07'3612.5
2014-Aug-17 10:27N 35°25' E 140°38'1112.3
2014-Aug-17 09:33N 35°34' E 140°47'43 0.9
2014-Aug-15 10:11N 35°01' E 140°13'1114.5
2014-Aug-15 09:25N 34°55' E 140°01'1313.0
2014-Aug-15 08:24N 34°51' E 139°46'19 0.8
2014-Aug-14 07:31N 35°00' E 139°25'1212.8
2014-Aug-14 06:33N 35°05' E 139°39'1211.8
2014-Aug-14 05:33N 35°16' E 139°46'1010.4
2014-Aug-14 04:33N 35°26' E 139°46'1212.0
2014-Aug-14 03:33N 35°31' E 139°59'2 2.5
2014-Aug-14 02:33N 35°30' E 140°02'0 0.0
2014-Aug-14 01:33N 35°30' E 140°02'0 0.0
2014-Aug-14 00:34N 35°30' E 140°02'0 0.0
2014-Aug-13 23:33N 35°30' E 140°02'0 0.0
2014-Aug-13 22:33N 35°30' E 140°02'2 2.3
2014-Aug-13 21:33N 35°31' E 139°60'0 0.0
2014-Aug-13 20:33N 35°31' E 139°60'0 0.0
2014-Aug-13 19:33N 35°31' E 139°60'0 0.0
2014-Aug-13 18:34N 35°31' E 139°60'0 0.0
2014-Aug-13 17:33N 35°31' E 139°60'0 0.1
2014-Aug-13 16:33N 35°31' E 139°60'0 0.0
2014-Aug-13 15:33N 35°31' E 139°60'1211.8
2014-Aug-13 14:33N 35°25' E 139°47'1111.3
2014-Aug-13 13:33N 35°14' E 139°47'1312.9
2014-Aug-13 12:33N 35°03' E 139°38'16 0.6
2014-Aug-12 10:08N 34°58' E 139°20'812.9
2014-Aug-12 09:32N 35°02' E 139°28'1212.7
2014-Aug-12 08:33N 35°07' E 139°42'1110.9
2014-Aug-12 07:33N 35°18' E 139°44'1010.4
2014-Aug-12 06:33N 35°28' E 139°48'1111.2
2014-Aug-12 05:33N 35°30' E 140°02'0 0.1
2014-Aug-12 04:33N 35°30' E 140°02'0 0.0
2014-Aug-12 03:33N 35°30' E 140°02'1 1.4
2014-Aug-12 02:33N 35°30' E 140°00'1 0.6
2014-Aug-12 01:33N 35°30' E 140°01'  
Track history (hours):
 
Tides and Currents Weather Stations Pressure Air Temp Water Temp Dewpoint Dewpoint Depression Visibility Wind Speed Wind Dir Waves Ship Positions

Dai15hakuryomaru

Last reported at 2014-Aug-22 01:33 UTC. Time now 2014-Aug-22 01:59 UTC.
Position N 35°30' E 140°02'.

Length 80 m; draft 5.4 m.

Type: Tanker. MMSI: 431000243.

Date/timePositionNaut miles runAvg speedWind from/ knotsBaromVisibWave heightAir tempDewpointWater temp
2014-Aug-22 01:33N 35°30' E 140°02'1 1.0
2014-Aug-22 00:33N 35°30' E 140°01'0 0.0
2014-Aug-21 23:33N 35°30' E 140°01'0 0.0
2014-Aug-21 22:34N 35°30' E 140°01'0 0.0
2014-Aug-21 21:33N 35°30' E 140°01'1 0.7
2014-Aug-21 20:33N 35°30' E 139°60'1212.4
2014-Aug-21 19:33N 35°24' E 139°46'1111.2
2014-Aug-21 18:33N 35°13' E 139°47'1413.6
2014-Aug-21 17:33N 34°60' E 139°44'1310.2
2014-Aug-21 16:17N 34°53' E 139°57'912.2
2014-Aug-21 15:33N 34°58' E 140°06'4013.3
2014-Aug-21 12:32N 35°28' E 140°39'2613.1
2014-Aug-21 10:33N 35°50' E 140°56'11 0.5
2014-Aug-20 10:09N 36°01' E 140°56'1012.1
2014-Aug-20 09:18N 35°51' E 140°56'1012.3
2014-Aug-20 08:27N 35°40' E 140°55'1112.6
2014-Aug-20 07:33N 35°31' E 140°47'1512.9
2014-Aug-20 06:25N 35°20' E 140°36'2612.8
2014-Aug-20 04:26N 35°01' E 140°14'1213.9
2014-Aug-20 03:33N 34°55' E 140°01'1413.6
2014-Aug-20 02:29N 34°52' E 139°44'1413.4
2014-Aug-20 01:26N 34°51' E 139°27'11 0.3
2014-Aug-18 08:25N 34°54' E 139°14'1112.1
2014-Aug-18 07:32N 35°00' E 139°25'1212.4
2014-Aug-18 06:33N 35°05' E 139°38'1212.1
2014-Aug-18 05:33N 35°15' E 139°46'1111.1
2014-Aug-18 04:33N 35°26' E 139°45'2 1.6
2014-Aug-18 03:33N 35°28' E 139°47'7 6.7
2014-Aug-18 02:33N 35°22' E 139°52'0 0.0
2014-Aug-18 01:33N 35°22' E 139°52'0 0.0
2014-Aug-18 00:33N 35°22' E 139°52'2 0.4
2014-Aug-17 18:33N 35°24' E 139°50'3 2.7
2014-Aug-17 17:34N 35°25' E 139°47'1010.3
2014-Aug-17 16:33N 35°14' E 139°47'1312.6
2014-Aug-17 15:33N 35°02' E 139°44'18 8.4
2014-Aug-17 13:21N 35°00' E 140°07'3612.5
2014-Aug-17 10:27N 35°25' E 140°38'1112.3
2014-Aug-17 09:33N 35°34' E 140°47'43 0.9
2014-Aug-15 10:11N 35°01' E 140°13'1114.5
2014-Aug-15 09:25N 34°55' E 140°01'1313.0
2014-Aug-15 08:24N 34°51' E 139°46'19 0.8
2014-Aug-14 07:31N 35°00' E 139°25'1212.8
2014-Aug-14 06:33N 35°05' E 139°39'1211.8
2014-Aug-14 05:33N 35°16' E 139°46'1010.4
2014-Aug-14 04:33N 35°26' E 139°46'1212.0
2014-Aug-14 03:33N 35°31' E 139°59'2 2.5
2014-Aug-14 02:33N 35°30' E 140°02'0 0.0
2014-Aug-14 01:33N 35°30' E 140°02'0 0.0
2014-Aug-14 00:34N 35°30' E 140°02'0 0.0
2014-Aug-13 23:33N 35°30' E 140°02'0 0.0
2014-Aug-13 22:33N 35°30' E 140°02'2 2.3
2014-Aug-13 21:33N 35°31' E 139°60'0 0.0
2014-Aug-13 20:33N 35°31' E 139°60'0 0.0
2014-Aug-13 19:33N 35°31' E 139°60'0 0.0
2014-Aug-13 18:34N 35°31' E 139°60'0 0.0
2014-Aug-13 17:33N 35°31' E 139°60'0 0.1
2014-Aug-13 16:33N 35°31' E 139°60'0 0.0
2014-Aug-13 15:33N 35°31' E 139°60'1211.8
2014-Aug-13 14:33N 35°25' E 139°47'1111.3
2014-Aug-13 13:33N 35°14' E 139°47'1312.9
2014-Aug-13 12:33N 35°03' E 139°38'16 0.6
2014-Aug-12 10:08N 34°58' E 139°20'812.9
2014-Aug-12 09:32N 35°02' E 139°28'1212.7
2014-Aug-12 08:33N 35°07' E 139°42'1110.9
2014-Aug-12 07:33N 35°18' E 139°44'1010.4
2014-Aug-12 06:33N 35°28' E 139°48'1111.2
2014-Aug-12 05:33N 35°30' E 140°02'0 0.1
2014-Aug-12 04:33N 35°30' E 140°02'0 0.0
2014-Aug-12 03:33N 35°30' E 140°02'1 1.4
2014-Aug-12 02:33N 35°30' E 140°00'1 0.6
2014-Aug-12 01:33N 35°30' E 140°01'  

Dump ship's entire track history